createdAt,value
2024-02-27T00:01:30.450Z,97742.25
2024-02-27T00:04:06.186Z,97747.69
2024-02-27T00:06:39.630Z,97742.47
2024-02-27T00:09:17.036Z,97732.09
2024-02-27T00:11:55.399Z,97737.63
2024-02-27T00:14:31.172Z,97723.63
2024-02-27T00:17:04.457Z,97717.50
2024-02-27T00:19:44.336Z,97724.34
2024-02-27T00:22:20.369Z,97712.56
2024-02-27T00:24:58.037Z,97724.47
2024-02-27T00:27:36.636Z,97715.44
2024-02-27T00:30:21.549Z,97725.72
2024-02-27T00:32:52.227Z,97712.97
2024-02-27T00:35:31.677Z,97730.69
2024-02-27T00:38:10.709Z,97724.84
2024-02-27T00:40:49.609Z,97735.94
2024-02-27T00:43:34.094Z,97735.69
2024-02-27T00:46:03.473Z,97714.88
2024-02-27T00:48:32.969Z,97715.97
2024-02-27T00:51:03.643Z,97685.44
2024-02-27T00:53:40.760Z,97747.38
2024-02-27T00:56:17.167Z,97737.19
2024-02-27T00:58:52.409Z,97743.25
2024-02-27T01:01:27.705Z,97739.88
2024-02-27T01:04:05.472Z,97738.75
2024-02-27T01:06:40.971Z,97735.03
2024-02-27T01:09:14.658Z,97737.19
2024-02-27T01:12:01.290Z,97724.59
2024-02-27T01:14:35.652Z,97744.53
2024-02-27T01:17:19.832Z,97741.75
2024-02-27T01:19:56.844Z,97743.91
2024-02-27T01:22:34.362Z,97746.69
2024-02-27T01:25:08.340Z,97748.72
2024-02-27T01:27:38.398Z,97739.78
2024-02-27T01:30:23.466Z,97750.00
2024-02-27T01:33:00.051Z,97749.81
2024-02-27T01:35:41.774Z,97722.00
2024-02-27T01:38:15.302Z,97747.47
2024-02-27T01:40:49.693Z,97749.81
2024-02-27T01:43:29.008Z,97744.59
2024-02-27T01:46:20.325Z,97736.69
2024-02-27T01:49:02.386Z,97739.50
2024-02-27T01:51:39.599Z,97747.56
2024-02-27T01:54:17.018Z,97755.25
2024-02-27T01:56:55.246Z,97750.06
2024-02-27T01:59:26.638Z,97754.09
2024-02-27T02:01:57.338Z,97751.28
2024-02-27T02:04:29.537Z,97746.34
2024-02-27T02:07:09.003Z,97748.31
2024-02-27T02:09:40.734Z,97755.88
2024-02-27T02:12:19.399Z,97756.16
2024-02-27T02:14:55.043Z,97748.56
2024-02-27T02:17:28.990Z,97744.38
2024-02-27T02:20:00.059Z,97755.81
2024-02-27T02:22:35.674Z,97745.66
2024-02-27T02:25:19.693Z,97746.78
2024-02-27T02:27:53.388Z,97757.41
2024-02-27T02:30:26.799Z,97755.25
2024-02-27T02:33:01.214Z,97751.94
2024-02-27T02:35:46.569Z,97759.66
2024-02-27T02:38:20.786Z,97746.53
2024-02-27T02:40:50.872Z,97750.41
2024-02-27T02:43:28.770Z,97756.41
2024-02-27T02:45:59.548Z,97753.38
2024-02-27T02:48:42.537Z,97760.97
2024-02-27T02:51:11.798Z,97741.59
2024-02-27T02:53:40.408Z,97758.22
2024-02-27T02:56:22.713Z,97752.31
2024-02-27T02:59:01.050Z,97749.41
2024-02-27T03:01:30.462Z,97751.78
2024-02-27T03:04:06.226Z,97740.50
2024-02-27T03:06:40.775Z,97750.81
2024-02-27T03:09:10.863Z,97754.47
2024-02-27T03:11:48.026Z,97744.34
2024-02-27T03:14:21.186Z,97754.84
2024-02-27T03:17:07.740Z,97751.75
2024-02-27T03:19:43.615Z,97761.97
2024-02-27T03:22:16.754Z,97730.50
2024-02-27T03:24:53.021Z,97758.09
2024-02-27T03:27:24.063Z,97773.94
2024-02-27T03:30:03.723Z,97777.22
2024-02-27T03:32:39.328Z,97778.50
2024-02-27T03:35:14.080Z,97778.09
2024-02-27T03:37:53.469Z,97784.41
2024-02-27T03:40:26.692Z,97779.81
2024-02-27T03:42:59.609Z,97776.00
2024-02-27T03:45:30.798Z,97756.16
2024-02-27T03:48:11.902Z,97773.31
2024-02-27T03:50:51.931Z,97768.59
2024-02-27T03:53:23.801Z,97752.63
2024-02-27T03:55:57.523Z,97771.97
2024-02-27T03:58:38.545Z,97787.78
2024-02-27T04:01:07.648Z,97789.16
2024-02-27T04:03:40.146Z,97788.13
2024-02-27T04:06:18.627Z,97791.16
2024-02-27T04:08:56.202Z,97782.44
2024-02-27T04:11:28.706Z,97786.66
2024-02-27T04:14:03.908Z,97795.47
2024-02-27T04:16:38.487Z,97802.06
2024-02-27T04:19:12.145Z,97798.75
2024-02-27T04:21:56.237Z,97803.38
2024-02-27T04:24:30.251Z,97804.19
2024-02-27T04:27:07.800Z,97805.81
2024-02-27T04:29:40.247Z,97805.91
2024-02-27T04:32:10.973Z,97806.44
2024-02-27T04:34:44.151Z,97803.69
2024-02-27T04:37:12.743Z,97814.69
2024-02-27T04:39:49.572Z,97778.91
2024-02-27T04:42:28.114Z,97789.16
2024-02-27T04:45:02.594Z,97807.63
2024-02-27T04:47:34.616Z,97754.00
2024-02-27T04:50:05.416Z,97814.22
2024-02-27T04:52:36.557Z,97733.59
2024-02-27T04:55:09.387Z,97813.97
2024-02-27T04:57:45.389Z,97822.44
2024-02-27T05:00:23.651Z,97820.03
2024-02-27T05:03:01.485Z,97816.56
2024-02-27T05:05:30.206Z,97819.06
2024-02-27T05:08:07.768Z,97816.88
2024-02-27T05:10:37.859Z,97812.78
2024-02-27T05:13:19.137Z,97783.94
2024-02-27T05:15:51.612Z,97802.69
2024-02-27T05:18:28.850Z,97823.81
2024-02-27T05:21:00.239Z,97826.00
2024-02-27T05:23:32.316Z,97819.44
2024-02-27T05:26:07.781Z,97823.81
2024-02-27T05:28:41.089Z,97838.31
2024-02-27T05:31:32.698Z,97841.66
2024-02-27T05:34:04.908Z,97830.63
2024-02-27T05:36:41.911Z,97825.44
2024-02-27T05:39:12.685Z,97828.44
2024-02-27T05:41:45.226Z,97835.75
2024-02-27T05:44:18.223Z,97839.25
2024-02-27T05:46:51.272Z,97837.19
2024-02-27T05:49:31.253Z,97834.47
2024-02-27T05:52:09.595Z,97841.50
2024-02-27T05:54:41.903Z,97843.91
2024-02-27T05:57:23.265Z,97842.75
2024-02-27T06:00:00.548Z,97842.53
2024-02-27T06:02:31.627Z,97845.47
2024-02-27T06:05:06.321Z,97846.56
2024-02-27T06:07:39.575Z,97854.19
2024-02-27T06:10:13.914Z,97859.44
2024-02-27T06:12:46.072Z,97853.19
2024-02-27T06:15:23.893Z,97862.69
2024-02-27T06:18:02.006Z,97858.84
2024-02-27T06:20:53.331Z,97858.03
2024-02-27T06:23:27.892Z,97866.22
2024-02-27T06:26:07.915Z,97869.81
2024-02-27T06:28:45.092Z,97868.72
2024-02-27T06:31:20.261Z,97880.91
2024-02-27T06:34:02.477Z,97875.91
2024-02-27T06:36:43.363Z,97873.69
2024-02-27T06:39:17.749Z,97887.56
2024-02-27T06:41:58.594Z,97888.47
2024-02-27T06:44:37.475Z,97883.50
2024-02-27T06:47:14.664Z,97891.09
2024-02-27T06:49:47.828Z,97901.16
2024-02-27T06:52:21.845Z,97878.47
2024-02-27T06:54:55.228Z,97894.75
2024-02-27T06:57:28.509Z,97878.94
2024-02-27T07:00:08.188Z,97904.13
2024-02-27T07:02:38.713Z,97872.66
2024-02-27T07:05:17.090Z,97843.78
2024-02-27T07:07:57.939Z,97913.81
2024-02-27T07:10:33.897Z,97909.97
2024-02-27T07:13:10.537Z,97893.06
2024-02-27T07:15:46.942Z,97912.34
2024-02-27T07:18:21.152Z,97914.19
2024-02-27T07:20:51.527Z,97917.69
2024-02-27T07:23:29.835Z,97894.53
2024-02-27T07:26:08.091Z,97913.09
2024-02-27T07:28:47.221Z,97917.94
2024-02-27T07:31:28.848Z,97913.47
2024-02-27T07:34:11.008Z,97913.63
2024-02-27T07:36:46.316Z,97914.13
2024-02-27T07:39:20.627Z,97906.47
2024-02-27T07:41:59.156Z,97911.56
2024-02-27T07:44:36.806Z,97918.69
2024-02-27T07:47:18.983Z,97908.84
2024-02-27T07:49:55.614Z,97912.09
2024-02-27T07:52:37.122Z,97909.22
2024-02-27T07:55:11.053Z,97912.03
2024-02-27T07:57:48.113Z,97918.88
2024-02-27T08:00:24.317Z,97926.00
2024-02-27T08:02:55.925Z,97922.59
2024-02-27T08:05:28.317Z,97904.63
2024-02-27T08:08:00.518Z,97926.59
2024-02-27T08:10:34.662Z,97930.25
2024-02-27T08:13:06.729Z,97944.56
2024-02-27T08:15:41.906Z,97943.75
2024-02-27T08:18:19.294Z,97944.16
2024-02-27T08:20:58.406Z,97910.22
2024-02-27T08:23:32.922Z,97946.16
2024-02-27T08:26:06.361Z,97932.34
2024-02-27T08:31:22.813Z,97921.31
2024-02-27T08:34:01.140Z,97952.50
2024-02-27T08:36:37.281Z,97951.66
2024-02-27T08:39:16.604Z,97961.56
2024-02-27T08:41:50.054Z,97961.53
2024-02-27T08:44:21.968Z,97963.16
2024-02-27T08:47:06.257Z,97968.34
2024-02-27T08:49:42.238Z,97962.34
2024-02-27T08:52:13.568Z,97964.41
2024-02-27T08:54:46.965Z,97964.50
2024-02-27T09:00:22.461Z,97970.97
2024-02-27T09:03:01.551Z,97966.53
2024-02-27T09:05:33.599Z,97969.41
2024-02-27T09:08:13.516Z,97969.84
2024-02-27T09:10:48.873Z,97973.56
2024-02-27T09:13:25.582Z,97979.88
2024-02-27T09:15:56.446Z,97985.72
2024-02-27T09:21:16.514Z,97987.38
2024-02-27T09:23:50.802Z,97991.28
2024-02-27T09:26:21.817Z,97980.97
2024-02-27T09:28:54.495Z,97986.97
2024-02-27T09:31:32.864Z,98000.00
2024-02-27T09:34:07.723Z,97993.44
2024-02-27T09:36:47.959Z,97993.31
2024-02-27T09:39:22.608Z,98004.94
2024-02-27T09:42:12.060Z,98012.69
2024-02-27T09:44:43.577Z,97999.75
2024-02-27T09:47:19.941Z,97997.81
2024-02-27T09:50:02.221Z,97981.56
2024-02-27T09:52:40.361Z,97979.84
2024-02-27T09:55:26.612Z,97978.22
2024-02-27T09:58:01.596Z,98003.16
2024-02-27T10:00:49.273Z,97997.34
2024-02-27T10:03:21.082Z,97997.03
2024-02-27T10:05:55.207Z,98004.31
2024-02-27T10:08:27.831Z,97959.97
2024-02-27T10:11:09.245Z,98009.53
2024-02-27T10:13:38.707Z,98008.50
2024-02-27T10:16:15.652Z,98011.47
2024-02-27T10:18:47.533Z,98014.94
2024-02-27T10:21:24.850Z,98010.09
2024-02-27T10:24:00.254Z,98013.81
2024-02-27T10:26:37.225Z,98005.66
2024-02-27T10:29:09.469Z,98005.25
2024-02-27T10:31:48.708Z,98009.97
2024-02-27T10:34:26.361Z,98014.25
2024-02-27T10:37:09.445Z,98000.19
2024-02-27T10:39:42.663Z,98002.94
2024-02-27T10:42:16.028Z,98022.66
2024-02-27T10:44:55.179Z,98020.06
2024-02-27T10:47:30.751Z,98013.84
2024-02-27T10:50:08.280Z,98012.34
2024-02-27T10:52:51.897Z,98013.88
2024-02-27T10:55:31.058Z,98012.75
2024-02-27T10:58:10.327Z,98019.38
2024-02-27T11:00:45.391Z,97982.63
2024-02-27T11:03:23.098Z,97997.31
2024-02-27T11:05:59.452Z,98022.00
2024-02-27T11:08:38.537Z,98013.88
2024-02-27T11:11:18.122Z,97995.50
2024-02-27T11:14:00.337Z,98018.47
2024-02-27T11:16:38.397Z,98019.75
2024-02-27T11:19:26.996Z,98028.69
2024-02-27T11:22:09.003Z,98030.00
2024-02-27T11:24:44.361Z,98015.25
2024-02-27T11:27:35.925Z,98014.53
2024-02-27T11:30:14.172Z,98017.91
2024-02-27T11:32:44.284Z,98022.19
2024-02-27T11:35:20.249Z,98001.06
2024-02-27T11:37:51.694Z,98017.19
2024-02-27T11:40:56.393Z,98024.97
2024-02-27T11:43:34.973Z,98023.31
2024-02-27T11:46:40.034Z,98020.53
2024-02-27T11:49:15.003Z,98021.47
2024-02-27T11:51:49.024Z,98029.31
2024-02-27T11:54:38.260Z,98028.53
2024-02-27T11:57:19.383Z,98027.06
2024-02-27T11:59:52.822Z,97968.78
2024-02-27T12:02:28.249Z,98025.75
2024-02-27T12:05:08.942Z,98008.06
2024-02-27T12:07:43.576Z,98009.72
2024-02-27T12:10:17.524Z,98007.34
2024-02-27T12:13:01.471Z,97992.66
2024-02-27T12:15:32.022Z,98010.50
2024-02-27T12:18:04.616Z,98009.38
2024-02-27T12:20:38.730Z,98006.81
2024-02-27T12:23:18.188Z,97994.22
2024-02-27T12:25:56.127Z,98002.75
2024-02-27T12:28:40.715Z,98007.66
2024-02-27T12:31:20.934Z,98005.31
2024-02-27T12:33:56.585Z,98006.31
2024-02-27T12:36:35.769Z,97996.78
2024-02-27T12:39:08.071Z,98005.00
2024-02-27T12:41:47.373Z,98010.34
2024-02-27T12:44:25.091Z,97997.47
2024-02-27T12:47:12.293Z,97989.06
2024-02-27T12:49:52.518Z,97985.78
2024-02-27T12:52:23.441Z,97992.63
2024-02-27T12:55:02.710Z,97996.84
2024-02-27T12:57:38.385Z,97994.63
2024-02-27T13:00:22.421Z,97995.47
2024-02-27T13:02:57.684Z,97988.81
2024-02-27T13:05:30.730Z,97994.41
2024-02-27T13:08:03.880Z,97989.19
2024-02-27T13:10:47.572Z,97989.56
2024-02-27T13:13:25.867Z,97993.28
2024-02-27T13:16:24.327Z,97985.09
2024-02-27T13:18:59.563Z,97986.13
2024-02-27T13:21:36.140Z,97986.41
2024-02-27T13:24:16.514Z,97983.16
2024-02-27T13:26:55.632Z,97975.75
2024-02-27T13:29:33.774Z,97975.88
2024-02-27T13:32:03.784Z,97986.22
2024-02-27T13:34:44.803Z,97982.41
2024-02-27T13:37:20.505Z,97974.19
2024-02-27T13:40:05.176Z,97976.53
2024-02-27T13:42:41.388Z,97975.06
2024-02-27T13:45:16.514Z,97969.88
2024-02-27T13:47:48.692Z,97981.72
2024-02-27T13:50:27.524Z,97983.16
2024-02-27T13:52:59.937Z,97983.84
2024-02-27T13:55:40.922Z,97973.06
2024-02-27T13:58:13.923Z,97981.66
2024-02-27T14:00:49.056Z,97964.31
2024-02-27T14:03:26.067Z,97978.47
2024-02-27T14:05:56.499Z,97975.19
2024-02-27T14:08:28.951Z,97972.81
2024-02-27T14:11:12.909Z,97974.19
2024-02-27T14:13:47.999Z,97970.91
2024-02-27T14:16:21.870Z,97968.72
2024-02-27T14:18:54.379Z,97970.28
2024-02-27T14:21:25.863Z,97966.72
2024-02-27T14:24:17.613Z,97966.22
2024-02-27T14:26:52.301Z,97974.69
2024-02-27T14:29:21.860Z,97970.91
2024-02-27T14:31:51.110Z,97973.81
2024-02-27T14:34:36.272Z,97971.72
2024-02-27T14:37:10.697Z,97968.63
2024-02-27T14:39:41.100Z,97965.53
2024-02-27T14:42:13.537Z,97970.63
2024-02-27T14:44:47.187Z,97967.84
2024-02-27T14:47:26.741Z,97972.25
2024-02-27T14:50:14.066Z,97983.78
2024-02-27T14:52:58.328Z,97978.84
2024-02-27T14:55:44.525Z,97981.69
2024-02-27T14:58:19.871Z,97980.56
2024-02-27T15:00:54.886Z,97980.25
2024-02-27T15:03:30.937Z,97941.03
2024-02-27T15:06:04.630Z,97952.25
2024-02-27T15:11:25.712Z,97967.16
2024-02-27T15:14:13.218Z,97987.84
2024-02-27T15:16:45.916Z,97983.66
2024-02-27T15:19:21.638Z,97981.69
2024-02-27T15:22:00.437Z,97982.13
2024-02-27T15:24:32.367Z,97977.94
2024-02-27T15:29:53.882Z,97983.19
2024-02-27T15:32:28.160Z,97981.31
2024-02-27T15:35:23.104Z,97992.72
2024-02-27T15:37:56.542Z,97991.28
2024-02-27T15:40:32.155Z,98001.78
2024-02-27T15:43:18.134Z,97981.47
2024-02-27T15:46:09.308Z,98000.59
2024-02-27T15:48:55.278Z,97987.13
2024-02-27T15:54:24.234Z,98006.53
2024-02-27T15:57:01.515Z,97991.34
2024-02-27T15:59:39.977Z,98011.44
2024-02-27T16:02:19.438Z,98012.13
2024-02-27T16:05:00.723Z,97995.09
2024-02-27T16:07:43.222Z,98004.44
2024-02-27T16:10:12.365Z,98010.34
2024-02-27T16:12:41.584Z,98026.19
2024-02-27T16:15:12.813Z,98020.03
2024-02-27T16:17:48.514Z,98014.84
2024-02-27T16:20:25.725Z,98027.56
2024-02-27T16:23:02.093Z,98035.03
2024-02-27T16:25:37.786Z,98021.47
2024-02-27T16:28:09.166Z,98011.47
2024-02-27T16:30:51.533Z,98029.25
2024-02-27T16:33:27.153Z,98030.56
2024-02-27T16:36:05.351Z,98023.00
2024-02-27T16:38:48.161Z,98032.50
2024-02-27T16:41:28.008Z,98040.66
2024-02-27T16:44:00.734Z,98040.56
2024-02-27T16:46:35.741Z,98041.78
2024-02-27T16:49:08.147Z,98043.13
2024-02-27T16:51:49.815Z,98044.03
2024-02-27T16:54:23.019Z,98048.94
2024-02-27T16:56:56.588Z,98052.09
2024-02-27T16:59:32.675Z,98050.88
2024-02-27T17:02:06.037Z,98049.66
2024-02-27T17:04:49.331Z,98055.28
2024-02-27T17:07:28.538Z,98061.19
2024-02-27T17:10:08.471Z,98062.09
2024-02-27T17:12:43.761Z,98062.94
2024-02-27T17:15:15.456Z,98068.22
2024-02-27T17:17:49.164Z,98073.44
2024-02-27T17:20:22.315Z,98078.34
2024-02-27T17:22:57.783Z,98078.34
2024-02-27T17:25:31.760Z,98080.38
2024-02-27T17:28:04.009Z,98077.63
2024-02-27T17:30:32.732Z,98078.22
2024-02-27T17:33:02.944Z,98088.19
2024-02-27T17:35:36.269Z,98090.13
2024-02-27T17:38:10.162Z,98103.91
2024-02-27T17:40:50.067Z,98105.75
2024-02-27T17:43:32.245Z,98110.16
2024-02-27T17:49:05.063Z,98116.78
2024-02-27T17:51:48.765Z,98131.16
2024-02-27T17:54:27.181Z,98124.91
2024-02-27T17:57:03.971Z,98114.09
2024-02-27T17:59:40.075Z,98116.22
2024-02-27T18:02:11.495Z,98125.88
2024-02-27T18:04:50.389Z,98131.44
2024-02-27T18:07:26.510Z,98131.16
2024-02-27T18:09:57.968Z,98133.91
2024-02-27T18:12:43.209Z,98140.03
2024-02-27T18:15:17.150Z,98140.47
2024-02-27T18:20:47.809Z,98093.63
2024-02-27T18:23:27.056Z,98126.84
2024-02-27T18:25:59.770Z,98121.38
2024-02-27T18:28:34.561Z,98141.75
2024-02-27T18:31:21.927Z,98154.91
2024-02-27T18:33:54.569Z,98158.28
2024-02-27T18:36:30.803Z,98156.75
2024-02-27T18:39:15.580Z,98166.09
2024-02-27T18:41:51.922Z,98164.16
2024-02-27T18:44:20.223Z,98151.88
2024-02-27T18:46:48.568Z,98154.72
2024-02-27T18:49:23.694Z,98159.81
2024-02-27T18:51:56.418Z,98163.50
2024-02-27T18:54:28.688Z,98165.13
2024-02-27T18:56:59.908Z,98163.41
2024-02-27T18:59:30.334Z,98171.59
2024-02-27T19:02:09.365Z,98173.53
2024-02-27T19:04:44.796Z,98175.19
2024-02-27T19:07:22.720Z,98172.72
2024-02-27T19:09:56.615Z,98179.28
2024-02-27T19:12:33.995Z,98182.34
2024-02-27T19:15:09.661Z,98185.31
2024-02-27T19:17:46.256Z,98199.16
2024-02-27T19:20:19.344Z,98191.25
2024-02-27T19:22:48.677Z,98197.59
2024-02-27T19:25:22.984Z,98191.06
2024-02-27T19:27:52.632Z,98193.72
2024-02-27T19:30:25.626Z,98193.41
2024-02-27T19:32:59.820Z,98193.41
2024-02-27T19:35:38.738Z,98194.41
2024-02-27T19:38:18.784Z,98203.72
2024-02-27T19:40:55.496Z,98207.06
2024-02-27T19:43:32.882Z,98210.94
2024-02-27T19:46:11.815Z,98213.47
2024-02-27T19:48:50.492Z,98217.56
2024-02-27T19:51:23.519Z,98197.63
2024-02-27T19:54:00.604Z,98230.16
2024-02-27T19:56:42.150Z,98237.25
2024-02-27T19:59:19.385Z,98226.06
2024-02-27T20:02:07.532Z,98226.59
2024-02-27T20:04:46.157Z,98232.47
2024-02-27T20:07:18.067Z,98214.75
2024-02-27T20:10:00.202Z,98225.03
2024-02-27T20:12:52.865Z,98240.44
2024-02-27T20:15:28.097Z,98240.75
2024-02-27T20:18:01.415Z,98240.13
2024-02-27T20:20:43.140Z,98231.13
2024-02-27T20:23:15.120Z,98237.25
2024-02-27T20:25:52.547Z,98242.00
2024-02-27T20:28:22.036Z,98241.13
2024-02-27T20:30:57.207Z,98238.94
2024-02-27T20:33:31.517Z,98231.78
2024-02-27T20:36:03.658Z,98227.19
2024-02-27T20:38:40.689Z,98222.59
2024-02-27T20:41:18.869Z,98237.31
2024-02-27T20:43:56.862Z,98241.19
2024-02-27T20:46:28.507Z,98224.00
2024-02-27T20:49:07.472Z,98236.72
2024-02-27T20:51:38.225Z,98231.75
2024-02-27T20:54:13.268Z,98232.91
2024-02-27T20:56:46.268Z,98234.56
2024-02-27T20:59:19.596Z,98238.88
2024-02-27T21:01:49.241Z,98246.16
2024-02-27T21:04:25.668Z,98235.22
2024-02-27T21:09:37.963Z,98247.19
2024-02-27T21:12:19.814Z,98238.06
2024-02-27T21:14:59.007Z,98244.69
2024-02-27T21:20:21.511Z,98246.16
2024-02-27T21:22:55.501Z,98244.00
2024-02-27T21:25:27.956Z,98248.84
2024-02-27T21:28:10.001Z,98250.94
2024-02-27T21:30:43.500Z,98256.16
2024-02-27T21:33:20.689Z,98258.31
2024-02-27T21:35:56.428Z,98262.69
2024-02-27T21:38:44.959Z,98257.91
2024-02-27T21:41:19.780Z,98256.06
2024-02-27T21:43:56.979Z,98251.16
2024-02-27T21:46:36.380Z,98245.56
2024-02-27T21:49:08.350Z,98252.72
2024-02-27T21:51:46.154Z,98252.06
2024-02-27T21:54:20.049Z,98241.34
2024-02-27T21:56:56.467Z,98179.41
2024-02-27T21:59:28.645Z,98220.53
2024-02-27T22:02:04.185Z,98242.88
2024-02-27T22:04:46.113Z,98244.13
2024-02-27T22:07:25.429Z,98239.00
2024-02-27T22:10:06.740Z,98235.22
2024-02-27T22:12:49.575Z,98235.28
2024-02-27T22:15:24.502Z,98243.25
2024-02-27T22:18:06.540Z,98241.44
2024-02-27T22:20:46.077Z,98244.41
2024-02-27T22:23:19.026Z,98246.41
2024-02-27T22:25:52.998Z,98248.34
2024-02-27T22:28:25.167Z,98250.97
2024-02-27T22:30:55.905Z,98246.72
2024-02-27T22:33:31.141Z,98253.63
2024-02-27T22:36:06.522Z,98252.81
2024-02-27T22:38:40.025Z,98261.88
2024-02-27T22:41:22.873Z,98266.03
2024-02-27T22:43:54.159Z,98264.19
2024-02-27T22:46:26.960Z,98258.69
2024-02-27T22:49:06.574Z,98209.41
2024-02-27T22:51:49.281Z,98258.75
2024-02-27T22:54:25.833Z,98268.94
2024-02-27T22:57:10.376Z,98271.53
2024-02-27T22:59:44.644Z,98282.47
2024-02-27T23:02:22.869Z,98269.63
2024-02-27T23:04:51.201Z,98273.94
2024-02-27T23:07:35.279Z,98280.56
2024-02-27T23:10:09.593Z,98278.81
2024-02-27T23:12:41.671Z,98280.44
2024-02-27T23:15:14.999Z,98268.44
2024-02-27T23:18:00.307Z,98282.19
2024-02-27T23:20:30.584Z,98273.88
2024-02-27T23:23:01.761Z,98271.66
2024-02-27T23:25:32.304Z,98280.06
2024-02-27T23:28:06.585Z,98284.66
2024-02-27T23:30:39.176Z,98285.47
2024-02-27T23:33:10.172Z,98288.44
2024-02-27T23:35:47.349Z,98289.00
2024-02-27T23:38:25.556Z,98297.25
2024-02-27T23:41:05.491Z,98294.03
2024-02-27T23:43:38.498Z,98287.75
2024-02-27T23:46:13.855Z,98300.56
2024-02-27T23:49:04.722Z,98289.84
2024-02-27T23:51:45.215Z,98290.16
2024-02-27T23:54:21.520Z,98308.13
2024-02-27T23:57:00.751Z,98301.44
2024-02-27T23:59:37.622Z,98310.88
